»·PEaware :: UAL439 KSFO-KRNO

UAL439 :: KSFO-KRNO

FLIGHT INFORMATION

Flight Status: Arrived
Operator:
United Airlines
More flights by this operator :: More flights under this callsign
Pilot: Pratham R. (19019)
Aircraft: AIRBUS A320
(A320)
More flights by this aircraft type
Origin: KSFO San Francisco Intl
United States
Destination: KRNO Reno/Tahoe Intl
United States
More flights between these airports :: More routes between these airports
Route: TRUKN2 ORRCA HOBOA WALAR
File this flight plan on PilotEdge
Remarks: RMK / SIMBRIEF
Altitude:
(Current/Filed)
29,000ft
Speed:
(Current/Filed)
439kts
Departed: 23-Feb-20 07:37 PM
Arrived: 23-Feb-20 08:19 PM
Distance/Time
Traveled:
166nm/0:42
Distance/Time
To Go:
Arrived

Flight Plot

Page will automatically refresh every two minutes.

Flight plan parsing failed; only flown route is shown


Map Options




Map Legend


Flown Route
Filed Route
Departure Airport
Arrival Airport
Navaid (VOR, NDB)
Fix

Horizontal Profiles

Position Reports

Time Latitude Longitude Heading Altitude Ground
Speed
23-Feb-20 19:20 37.617856 -122.380643 257 32ft 0kts
23-Feb-20 19:21 37.617856 -122.380643 257 32ft 0kts
23-Feb-20 19:22 37.617856 -122.380643 257 32ft 0kts
23-Feb-20 19:23 37.617856 -122.380643 257 32ft 0kts
23-Feb-20 19:24 37.617857 -122.380642 257 32ft 0kts
23-Feb-20 19:25 37.617943 -122.380158 257 32ft 2kts
23-Feb-20 19:26 37.618211 -122.379696 178 32ft 2kts
23-Feb-20 19:27 37.618376 -122.379766 151 32ft 0kts
23-Feb-20 19:28 37.618376 -122.379765 151 32ft 0kts
23-Feb-20 19:29 37.618376 -122.379765 151 32ft 0kts
23-Feb-20 19:30 37.618376 -122.379765 151 32ft 0kts
23-Feb-20 19:31 37.617398 -122.379449 181 31ft 14kts
23-Feb-20 19:32 37.613446 -122.381759 208 32ft 16kts
23-Feb-20 19:33 37.610349 -122.383814 209 32ft 5kts
23-Feb-20 19:34 37.608614 -122.384189 118 32ft 6kts
23-Feb-20 19:35 37.608293 -122.382519 18 31ft 8kts
23-Feb-20 19:36 37.625730 -122.370622 27 468ft 175kts
23-Feb-20 19:37 37.660721 -122.316359 52 3355ft 253kts
23-Feb-20 19:38 37.701964 -122.241622 54 6794ft 291kts
23-Feb-20 19:39 37.758556 -122.174513 30 10669ft 295kts
23-Feb-20 19:40 37.827705 -122.114382 31 12842ft 350kts
23-Feb-20 19:41 37.892865 -122.055813 31 15189ft 364kts
23-Feb-20 19:42 37.965351 -121.990138 31 17509ft 376kts
23-Feb-20 19:43 38.045894 -121.916837 31 19349ft 383kts
23-Feb-20 19:44 38.108248 -121.859928 31 20617ft 393kts
23-Feb-20 19:45 38.175588 -121.798312 30 22220ft 402kts
23-Feb-20 19:46 38.239843 -121.739395 30 23594ft 410kts
23-Feb-20 19:47 38.300185 -121.683944 30 24796ft 416kts
23-Feb-20 19:48 38.369517 -121.620088 30 26068ft 423kts
23-Feb-20 19:49 38.442708 -121.551189 34 27270ft 434kts
23-Feb-20 19:50 38.519681 -121.454773 38 28529ft 446kts
23-Feb-20 19:51 38.587300 -121.368408 38 29362ft 449kts
23-Feb-20 19:52 38.639554 -121.301517 39 29369ft 456kts
23-Feb-20 19:53 38.703508 -121.219404 39 29366ft 457kts
23-Feb-20 19:54 38.760974 -121.145451 39 29373ft 456kts
23-Feb-20 19:55 38.826465 -121.060944 38 29302ft 452kts
23-Feb-20 19:56 38.896622 -120.970170 38 29361ft 451kts
23-Feb-20 19:57 38.971998 -120.872325 37 29273ft 453kts
23-Feb-20 19:58 39.054528 -120.764837 37 29367ft 459kts
23-Feb-20 19:59 39.122237 -120.676357 37 29408ft 464kts
23-Feb-20 20:00 39.193418 -120.583064 37 29460ft 466kts
23-Feb-20 20:02 39.269804 -120.482617 37 29366ft 460kts
23-Feb-20 20:03 39.342869 -120.386239 36 28616ft 430kts
23-Feb-20 20:04 39.417328 -120.285668 41 26748ft 424kts
23-Feb-20 20:05 39.490457 -120.176333 41 24445ft 416kts
23-Feb-20 20:06 39.564911 -120.064779 42 22215ft 403kts
23-Feb-20 20:07 39.617404 -119.948291 82 20367ft 403kts
23-Feb-20 20:08 39.604025 -119.813511 94 17562ft 391kts
23-Feb-20 20:09 39.588752 -119.679674 94 14753ft 372kts
23-Feb-20 20:10 39.539396 -119.579782 165 12318ft 340kts
23-Feb-20 20:11 39.448887 -119.570813 178 10273ft 314kts
23-Feb-20 20:12 39.374454 -119.568571 196 10005ft 259kts
23-Feb-20 20:13 39.347179 -119.632750 273 9379ft 225kts
23-Feb-20 20:14 39.349642 -119.705612 276 8568ft 194kts
23-Feb-20 20:15 39.374408 -119.762498 324 6806ft 212kts
23-Feb-20 20:16 39.423489 -119.768753 358 5887ft 169kts
23-Feb-20 20:17 39.461647 -119.769207 355 4977ft 140kts
23-Feb-20 20:17 39.490172 -119.769273 355 4426ft 130kts
23-Feb-20 20:19 39.503267 -119.769980 317 4424ft 2kts
23-Feb-20 20:20 39.503709 -119.772579 255 4424ft 7kts
23-Feb-20 20:20 39.503157 -119.773061 181 4424ft 0kts
23-Feb-20 20:22 39.503097 -119.773062 180 4424ft 0kts
23-Feb-20 20:23 39.503098 -119.773062 180 4424ft 0kts
23-Feb-20 20:23 39.503098 -119.773062 180 4424ft 0kts
23-Feb-20 20:24 39.503098 -119.773062 180 4424ft 0kts
23-Feb-20 20:26 39.503098 -119.773062 180 4424ft 0kts
23-Feb-20 20:26 39.503098 -119.773062 180 4424ft 0kts
23-Feb-20 20:27 39.503098 -119.773062 180 4424ft 0kts
23-Feb-20 20:28 39.501712 -119.769307 358 4424ft 23kts

Navigation Log

Ident Type
Flight plan parsing failed, navigation log unavailable